createdAt,value
2022-12-06T00:01:35.995Z,50.55
2022-12-06T00:04:11.960Z,51.38
2022-12-06T00:06:41.392Z,48.90
2022-12-06T00:09:08.666Z,48.53
2022-12-06T00:11:36.583Z,49.28
2022-12-06T00:14:06.101Z,48.10
2022-12-06T00:16:34.466Z,48.80
2022-12-06T00:19:02.123Z,44.95
2022-12-06T00:21:31.997Z,45.85
2022-12-06T00:24:11.051Z,45.20
2022-12-06T00:26:39.687Z,43.95
2022-12-06T00:29:07.904Z,43.60
2022-12-06T00:31:35.780Z,44.58
2022-12-06T00:34:02.977Z,42.42
2022-12-06T00:36:32.446Z,42.33
2022-12-06T00:39:01.026Z,42.88
2022-12-06T00:41:28.255Z,41.85
2022-12-06T00:43:55.292Z,41.95
2022-12-06T00:46:24.754Z,39.63
2022-12-06T00:48:52.517Z,41.33
2022-12-06T00:51:20.707Z,40.00
2022-12-06T00:53:47.989Z,38.58
2022-12-06T00:56:15.192Z,37.85
2022-12-06T00:58:42.490Z,37.47
2022-12-06T01:01:24.590Z,37.53
2022-12-06T01:03:56.209Z,36.63
2022-12-06T01:06:28.106Z,35.92
2022-12-06T01:08:56.696Z,35.05
2022-12-06T01:11:24.041Z,36.03
2022-12-06T01:13:52.030Z,35.42
2022-12-06T01:16:23.318Z,34.20
2022-12-06T01:18:53.861Z,33.85
2022-12-06T01:21:21.476Z,32.58
2022-12-06T01:23:49.193Z,33.83
2022-12-06T01:26:30.855Z,34.35
2022-12-06T01:28:58.956Z,32.35
2022-12-06T01:31:26.035Z,33.40
2022-12-06T01:33:52.908Z,32.58
2022-12-06T01:36:24.109Z,32.42
2022-12-06T01:38:56.410Z,30.92
2022-12-06T01:41:26.109Z,30.38
2022-12-06T01:46:39.399Z,30.95
2022-12-06T01:49:18.114Z,29.55
2022-12-06T01:51:52.085Z,28.60
2022-12-06T01:56:49.377Z,28.77
2022-12-06T01:59:16.980Z,26.80
2022-12-06T02:01:44.221Z,27.85
2022-12-06T02:04:11.266Z,28.42
2022-12-06T02:06:39.675Z,26.92
2022-12-06T02:09:08.602Z,26.63
2022-12-06T02:11:36.001Z,25.77
2022-12-06T02:14:06.138Z,26.42
2022-12-06T02:16:52.345Z,26.10
2022-12-06T02:19:37.938Z,24.65
2022-12-06T02:22:22.955Z,25.27
2022-12-06T02:24:59.388Z,26.20
2022-12-06T02:27:53.424Z,25.83
2022-12-06T02:30:32.272Z,24.83
2022-12-06T02:33:05.768Z,23.33
2022-12-06T02:35:37.600Z,24.20
2022-12-06T02:38:22.299Z,23.25
2022-12-06T02:41:01.379Z,23.85
2022-12-06T02:43:51.307Z,23.85
2022-12-06T02:46:20.271Z,23.20
2022-12-06T02:48:48.398Z,22.10
2022-12-06T02:51:17.477Z,23.10
2022-12-06T02:53:50.687Z,22.10
2022-12-06T02:56:17.884Z,21.13
2022-12-06T02:58:44.851Z,21.85
2022-12-06T03:01:24.126Z,22.00
2022-12-06T03:04:02.048Z,20.65
2022-12-06T03:06:41.109Z,21.55
2022-12-06T03:09:20.212Z,20.85
2022-12-06T03:12:11.784Z,20.90
2022-12-06T03:15:14.250Z,19.75
2022-12-06T03:17:48.371Z,20.15
2022-12-06T03:20:28.176Z,19.50
2022-12-06T03:25:24.984Z,18.75
2022-12-06T03:27:54.129Z,19.67
2022-12-06T03:30:21.123Z,19.05
2022-12-06T03:32:49.586Z,19.13
2022-12-06T03:35:24.445Z,17.80
2022-12-06T03:37:56.548Z,18.05
2022-12-06T03:40:29.738Z,17.27
2022-12-06T03:42:56.847Z,18.20
2022-12-06T03:45:28.774Z,17.55
2022-12-06T03:48:01.508Z,17.67
2022-12-06T03:50:41.420Z,18.55
2022-12-06T03:53:08.412Z,16.10
2022-12-06T03:55:35.365Z,17.27
2022-12-06T03:58:02.437Z,16.23
2022-12-06T04:00:29.397Z,16.13
2022-12-06T04:02:56.309Z,15.63
2022-12-06T04:05:23.190Z,16.30
2022-12-06T04:07:50.167Z,15.95
2022-12-06T04:10:17.200Z,14.82
2022-12-06T04:13:02.107Z,16.08
2022-12-06T04:15:32.766Z,15.80
2022-12-06T04:18:13.374Z,14.82
2022-12-06T04:21:11.197Z,14.63
2022-12-06T04:23:39.815Z,15.25
2022-12-06T04:26:09.166Z,15.45
2022-12-06T04:28:55.118Z,14.98
2022-12-06T04:31:41.089Z,13.45
2022-12-06T04:34:26.638Z,13.90
2022-12-06T04:37:13.152Z,14.35
2022-12-06T04:39:40.068Z,15.00
2022-12-06T04:42:25.878Z,13.82
2022-12-06T04:44:52.853Z,13.40
2022-12-06T04:47:19.797Z,14.05
2022-12-06T04:49:46.947Z,13.15
2022-12-06T04:52:14.005Z,13.60
2022-12-06T04:54:41.588Z,13.90
2022-12-06T04:57:11.320Z,14.57
2022-12-06T04:59:40.165Z,13.20
2022-12-06T05:02:08.288Z,12.32
2022-12-06T05:04:35.258Z,12.27
2022-12-06T05:07:02.329Z,12.75
2022-12-06T05:09:29.228Z,12.02
2022-12-06T05:11:56.294Z,12.18
2022-12-06T05:14:23.200Z,11.95
2022-12-06T05:16:50.154Z,12.30
2022-12-06T05:19:17.133Z,12.52
2022-12-06T05:21:44.013Z,12.23
2022-12-06T05:24:10.879Z,10.50
2022-12-06T05:26:37.751Z,10.70
2022-12-06T05:29:04.684Z,10.95
2022-12-06T05:31:31.612Z,11.38
2022-12-06T05:33:58.529Z,11.00
2022-12-06T05:36:26.958Z,10.60
2022-12-06T05:38:54.333Z,11.15
2022-12-06T05:41:22.831Z,10.38
2022-12-06T05:43:50.092Z,11.43
2022-12-06T05:46:17.357Z,10.80
2022-12-06T05:48:44.911Z,10.05
2022-12-06T05:51:12.134Z,10.25
2022-12-06T05:53:39.513Z,9.80
2022-12-06T05:56:11.426Z,10.15
2022-12-06T05:58:38.728Z,10.13
2022-12-06T06:01:06.808Z,9.80
2022-12-06T06:03:33.858Z,9.73
2022-12-06T06:06:01.620Z,9.05
2022-12-06T06:08:29.946Z,9.15
2022-12-06T06:10:57.308Z,9.38
2022-12-06T06:13:24.625Z,9.27
2022-12-06T06:15:51.586Z,9.20
2022-12-06T06:18:19.278Z,8.95
2022-12-06T06:20:54.784Z,8.52
2022-12-06T06:23:22.253Z,8.38
2022-12-06T06:25:49.165Z,8.40
2022-12-06T06:28:16.873Z,8.70
2022-12-06T06:30:43.903Z,8.30
2022-12-06T06:33:10.979Z,8.10
2022-12-06T06:35:39.048Z,8.10
2022-12-06T06:38:06.149Z,7.82
2022-12-06T06:40:33.607Z,8.02
2022-12-06T06:43:18.289Z,7.75
2022-12-06T06:45:46.204Z,7.55
2022-12-06T06:48:13.264Z,8.73
2022-12-06T06:50:40.216Z,40.33
2022-12-06T06:53:07.116Z,57.00
2022-12-06T06:55:35.839Z,52.35
2022-12-06T06:58:03.249Z,48.47
2022-12-06T07:00:30.163Z,46.15
2022-12-06T07:02:57.108Z,44.25
2022-12-06T07:05:24.228Z,41.67
2022-12-06T07:07:51.250Z,36.33
2022-12-06T07:10:18.174Z,36.10
2022-12-06T07:12:45.085Z,33.78
2022-12-06T07:15:11.969Z,32.28
2022-12-06T07:17:38.874Z,68.75
2022-12-06T07:20:06.435Z,76.28
2022-12-06T07:22:33.328Z,81.20
2022-12-06T07:25:00.176Z,80.47
2022-12-06T07:27:27.264Z,73.57
2022-12-06T07:29:54.171Z,68.18
2022-12-06T07:32:21.027Z,63.42
2022-12-06T07:34:47.887Z,58.15
2022-12-06T07:37:15.267Z,54.97
2022-12-06T07:39:43.219Z,51.85
2022-12-06T07:42:29.146Z,50.33
2022-12-06T07:45:02.774Z,120.35
2022-12-06T07:47:34.903Z,126.05
2022-12-06T07:50:02.332Z,127.75
2022-12-06T07:52:33.683Z,121.18
2022-12-06T07:55:00.865Z,110.55
2022-12-06T07:57:28.284Z,101.75
2022-12-06T07:59:55.700Z,95.00
2022-12-06T08:02:25.873Z,84.07
2022-12-06T08:04:53.265Z,79.93
2022-12-06T08:07:23.685Z,74.45
2022-12-06T08:09:51.695Z,69.18
2022-12-06T08:12:18.714Z,67.88
2022-12-06T08:14:45.760Z,62.92
2022-12-06T08:17:12.795Z,64.07
2022-12-06T08:19:39.650Z,59.95
2022-12-06T08:22:06.834Z,56.17
2022-12-06T08:24:33.700Z,56.53
2022-12-06T08:27:00.567Z,53.40
2022-12-06T08:29:27.459Z,53.35
2022-12-06T08:31:54.456Z,51.10
2022-12-06T08:34:21.463Z,49.70
2022-12-06T08:36:48.313Z,48.45
2022-12-06T08:39:15.206Z,46.38
2022-12-06T08:41:58.431Z,45.72
2022-12-06T08:44:27.206Z,44.40
2022-12-06T08:46:54.645Z,67.93
2022-12-06T08:49:23.083Z,105.55
2022-12-06T08:51:50.491Z,95.88
2022-12-06T08:54:19.931Z,89.85
2022-12-06T08:56:46.960Z,80.47
2022-12-06T08:59:14.047Z,77.00
2022-12-06T09:01:41.865Z,71.50
2022-12-06T09:04:10.290Z,67.57
2022-12-06T09:06:39.246Z,64.85
2022-12-06T09:09:06.610Z,62.38
2022-12-06T09:11:33.602Z,61.35
2022-12-06T09:14:00.530Z,56.35
2022-12-06T09:16:27.511Z,58.05
2022-12-06T09:18:54.440Z,52.92
2022-12-06T09:21:24.599Z,52.42
2022-12-06T09:23:55.381Z,50.67
2022-12-06T09:26:22.269Z,49.97
2022-12-06T09:28:50.763Z,47.95
2022-12-06T09:31:18.971Z,46.92
2022-12-06T09:33:46.198Z,45.25
2022-12-06T09:36:23.012Z,43.90
2022-12-06T09:38:55.415Z,54.63
2022-12-06T09:41:23.031Z,68.45
2022-12-06T09:43:52.805Z,62.67
2022-12-06T09:48:52.051Z,60.65
2022-12-06T09:51:22.044Z,57.50
2022-12-06T09:54:00.895Z,51.85
2022-12-06T09:57:14.228Z,48.10
2022-12-06T09:59:57.011Z,48.00
2022-12-06T10:02:46.388Z,46.38
2022-12-06T10:05:33.923Z,42.63
2022-12-06T10:08:10.132Z,41.30
2022-12-06T10:10:53.949Z,39.65
2022-12-06T10:13:56.261Z,38.42
2022-12-06T10:16:26.009Z,36.20
2022-12-06T10:19:08.045Z,35.97
2022-12-06T10:22:05.709Z,34.75
2022-12-06T10:24:51.028Z,33.42
2022-12-06T10:28:01.104Z,33.45
2022-12-06T10:30:28.115Z,33.33
2022-12-06T10:33:05.777Z,32.28
2022-12-06T10:36:06.038Z,31.02
2022-12-06T10:38:41.316Z,30.38
2022-12-06T10:41:53.385Z,30.38
2022-12-06T10:44:30.446Z,30.45
2022-12-06T10:47:04.006Z,28.45
2022-12-06T10:50:01.447Z,28.35
2022-12-06T10:52:28.459Z,28.35
2022-12-06T10:55:10.860Z,28.35
2022-12-06T10:57:43.730Z,27.08
2022-12-06T11:00:16.177Z,28.92
2022-12-06T11:03:04.791Z,26.65
2022-12-06T11:05:48.996Z,26.80
2022-12-06T11:08:26.022Z,25.98
2022-12-06T11:10:54.914Z,25.73
2022-12-06T11:13:43.317Z,24.77
2022-12-06T11:16:53.482Z,24.95
2022-12-06T11:19:39.333Z,25.40
2022-12-06T11:22:39.623Z,24.77
2022-12-06T11:25:09.498Z,23.25
2022-12-06T11:27:46.947Z,24.52
2022-12-06T11:30:19.989Z,24.08
2022-12-06T11:32:49.073Z,24.85
2022-12-06T11:35:23.426Z,25.05
2022-12-06T11:37:54.819Z,25.13
2022-12-06T11:43:11.566Z,25.15
2022-12-06T11:45:40.326Z,24.67
2022-12-06T11:48:19.345Z,25.47
2022-12-06T11:50:47.963Z,23.00
2022-12-06T11:53:50.258Z,23.83
2022-12-06T11:56:30.996Z,23.88
2022-12-06T11:59:28.552Z,22.58
2022-12-06T12:01:57.826Z,39.83
2022-12-06T12:04:36.039Z,46.70
2022-12-06T12:07:18.497Z,44.92
2022-12-06T12:09:54.960Z,42.67
2022-12-06T12:12:24.539Z,38.70
2022-12-06T12:14:56.635Z,36.20
2022-12-06T12:17:29.275Z,33.10
2022-12-06T12:20:05.504Z,32.53
2022-12-06T12:22:36.152Z,29.52
2022-12-06T12:25:28.466Z,29.40
2022-12-06T12:27:57.803Z,27.20
2022-12-06T12:30:28.295Z,26.90
2022-12-06T12:33:19.553Z,26.25
2022-12-06T12:35:51.258Z,25.65
2022-12-06T12:38:36.354Z,24.48
2022-12-06T12:41:12.642Z,23.35
2022-12-06T12:43:40.045Z,24.15
2022-12-06T12:46:10.151Z,21.83
2022-12-06T12:48:38.972Z,22.52
2022-12-06T12:51:23.008Z,20.77
2022-12-06T12:53:56.169Z,20.83
2022-12-06T12:56:23.859Z,21.98
2022-12-06T12:58:54.818Z,20.45
2022-12-06T13:01:24.814Z,19.77
2022-12-06T13:04:02.355Z,20.33
2022-12-06T13:06:45.762Z,19.50
2022-12-06T13:09:20.735Z,19.65
2022-12-06T13:11:53.210Z,19.75
2022-12-06T13:14:22.098Z,17.88
2022-12-06T13:16:52.271Z,18.67
2022-12-06T13:19:21.034Z,17.67
2022-12-06T13:21:48.618Z,17.57
2022-12-06T13:24:24.428Z,17.98
2022-12-06T13:27:04.184Z,16.90
2022-12-06T13:29:37.600Z,16.98
2022-12-06T13:32:28.298Z,16.80
2022-12-06T13:35:04.871Z,16.95
2022-12-06T13:37:48.634Z,15.55
2022-12-06T13:40:33.966Z,15.40
2022-12-06T13:43:06.325Z,15.60
2022-12-06T13:45:48.402Z,15.20
2022-12-06T13:48:24.648Z,15.68
2022-12-06T13:50:54.808Z,16.15
2022-12-06T13:53:23.868Z,15.68
2022-12-06T13:55:59.715Z,14.93
2022-12-06T13:58:26.719Z,15.57
2022-12-06T14:00:57.416Z,15.13
2022-12-06T14:03:27.124Z,15.05
2022-12-06T14:08:55.214Z,14.18
2022-12-06T14:11:27.873Z,13.70
2022-12-06T14:14:00.554Z,14.80
2022-12-06T14:16:48.625Z,14.07
2022-12-06T14:19:24.555Z,14.38
2022-12-06T14:21:58.421Z,14.05
2022-12-06T14:24:29.258Z,14.20
2022-12-06T14:27:13.256Z,13.57
2022-12-06T14:29:42.101Z,13.45
2022-12-06T14:32:09.784Z,13.75
2022-12-06T14:34:37.288Z,13.88
2022-12-06T14:37:20.901Z,13.95
2022-12-06T14:39:52.750Z,14.32
2022-12-06T14:42:39.065Z,13.38
2022-12-06T14:45:12.385Z,13.27
2022-12-06T14:47:39.427Z,12.23
2022-12-06T14:50:29.134Z,12.73
2022-12-06T14:55:25.036Z,13.10
2022-12-06T14:58:03.125Z,13.88
2022-12-06T15:00:38.870Z,12.63
2022-12-06T15:03:10.393Z,11.60
2022-12-06T15:05:40.153Z,11.40
2022-12-06T15:10:57.029Z,12.07
2022-12-06T15:13:24.593Z,11.73
2022-12-06T15:16:05.404Z,12.00
2022-12-06T15:18:35.613Z,12.10
2022-12-06T15:21:02.597Z,13.60
2022-12-06T15:23:29.740Z,11.95
2022-12-06T15:25:56.969Z,12.68
2022-12-06T15:28:24.128Z,14.30
2022-12-06T15:30:51.275Z,13.65
2022-12-06T15:33:20.624Z,39.85
2022-12-06T15:35:47.900Z,61.58
2022-12-06T15:38:14.860Z,60.92
2022-12-06T15:40:47.852Z,65.55
2022-12-06T15:43:23.666Z,64.40
2022-12-06T15:45:50.807Z,67.25
2022-12-06T15:48:17.703Z,69.25
2022-12-06T15:50:44.677Z,68.70
2022-12-06T15:53:20.428Z,64.13
2022-12-06T15:55:47.682Z,62.97
2022-12-06T15:58:14.624Z,71.30
2022-12-06T16:00:41.716Z,78.85
2022-12-06T16:03:08.886Z,89.40
2022-12-06T16:05:36.103Z,155.50
2022-12-06T16:08:03.233Z,206.98
2022-12-06T16:11:03.002Z,236.35
2022-12-06T16:13:23.623Z,245.23
2022-12-06T16:15:52.011Z,243.98
2022-12-06T16:18:19.517Z,236.82
2022-12-06T16:20:46.691Z,239.20
2022-12-06T16:26:24.630Z,211.10
2022-12-06T16:28:51.567Z,202.68
2022-12-06T16:31:18.613Z,192.50
2022-12-06T16:33:45.595Z,189.48
2022-12-06T16:36:16.267Z,179.85
2022-12-06T16:38:43.292Z,162.73
2022-12-06T16:41:31.100Z,155.18
2022-12-06T16:43:58.630Z,145.73
2022-12-06T16:46:30.131Z,140.68
2022-12-06T16:49:37.215Z,131.43
2022-12-06T16:51:53.552Z,119.38
2022-12-06T16:54:20.707Z,119.85
2022-12-06T16:56:48.942Z,122.70
2022-12-06T16:59:17.706Z,139.43
2022-12-06T17:01:53.127Z,147.23
2022-12-06T17:04:20.571Z,141.63
2022-12-06T17:06:48.201Z,134.05
2022-12-06T17:09:16.196Z,125.30
2022-12-06T17:12:02.091Z,122.35
2022-12-06T17:14:29.356Z,118.75
2022-12-06T17:16:57.185Z,115.18
2022-12-06T17:19:28.497Z,103.85
2022-12-06T17:21:56.122Z,110.97
2022-12-06T17:24:25.244Z,105.38
2022-12-06T17:26:54.253Z,99.57
2022-12-06T17:29:23.538Z,101.65
2022-12-06T17:31:51.206Z,88.18
2022-12-06T17:34:20.038Z,87.20
2022-12-06T17:36:48.136Z,83.55
2022-12-06T17:39:18.388Z,86.07
2022-12-06T17:42:04.134Z,83.88
2022-12-06T17:44:31.369Z,79.80
2022-12-06T17:46:58.473Z,77.22
2022-12-06T17:49:26.534Z,78.63
2022-12-06T17:51:53.797Z,79.72
2022-12-06T17:54:21.188Z,75.97
2022-12-06T17:56:55.997Z,76.68
2022-12-06T17:59:28.012Z,75.40
2022-12-06T18:02:15.056Z,75.82
2022-12-06T18:04:44.128Z,74.97
2022-12-06T18:07:12.244Z,76.27
2022-12-06T18:09:39.339Z,74.65
2022-12-06T18:12:09.043Z,71.30
2022-12-06T18:14:36.081Z,65.47
2022-12-06T18:17:03.039Z,67.05
2022-12-06T18:19:30.486Z,64.95
2022-12-06T18:21:57.407Z,68.65
2022-12-06T18:24:27.962Z,70.10
2022-12-06T18:26:58.864Z,78.07
2022-12-06T18:29:25.795Z,81.55
2022-12-06T18:31:52.904Z,79.97
2022-12-06T18:34:20.294Z,74.05
2022-12-06T18:36:47.381Z,71.25
2022-12-06T18:39:16.633Z,67.90
2022-12-06T18:41:44.586Z,64.68
2022-12-06T18:44:12.518Z,66.00
2022-12-06T18:46:42.533Z,63.28
2022-12-06T18:49:11.387Z,61.28
2022-12-06T18:51:41.654Z,60.40
2022-12-06T18:54:08.860Z,58.05
2022-12-06T18:56:36.212Z,56.08
2022-12-06T18:59:05.742Z,54.85
2022-12-06T19:04:03.072Z,53.47
2022-12-06T19:06:32.378Z,50.38
2022-12-06T19:09:04.317Z,50.72
2022-12-06T19:11:31.499Z,50.88
2022-12-06T19:13:59.774Z,50.10
2022-12-06T19:16:30.970Z,48.92
2022-12-06T19:18:59.723Z,50.28
2022-12-06T19:21:27.191Z,48.90
2022-12-06T19:23:55.290Z,49.20
2022-12-06T19:26:23.270Z,47.97
2022-12-06T19:28:50.741Z,50.22
2022-12-06T19:31:17.857Z,50.33
2022-12-06T19:33:48.391Z,73.07
2022-12-06T19:36:24.101Z,81.38
2022-12-06T19:38:59.489Z,81.97
2022-12-06T19:41:26.459Z,81.05
2022-12-06T19:44:11.869Z,74.07
2022-12-06T19:46:41.050Z,70.72
2022-12-06T19:49:08.285Z,66.25
2022-12-06T19:51:36.845Z,62.88
2022-12-06T19:54:04.533Z,60.72
2022-12-06T19:56:31.926Z,59.83
2022-12-06T19:58:59.057Z,58.53
2022-12-06T20:01:29.794Z,55.80
2022-12-06T20:03:57.187Z,54.80
2022-12-06T20:06:26.240Z,54.08
2022-12-06T20:08:54.978Z,54.92
2022-12-06T20:11:42.463Z,67.43
2022-12-06T20:14:15.305Z,81.18
2022-12-06T20:16:43.259Z,90.20
2022-12-06T20:19:11.464Z,83.40
2022-12-06T20:21:38.396Z,76.50
2022-12-06T20:24:05.550Z,71.88
2022-12-06T20:26:32.964Z,69.40
2022-12-06T20:29:00.165Z,65.78
2022-12-06T20:31:28.882Z,63.78
2022-12-06T20:34:00.040Z,60.72
2022-12-06T20:36:27.624Z,58.80
2022-12-06T20:38:55.473Z,55.72
2022-12-06T20:41:27.197Z,60.35
2022-12-06T20:43:54.099Z,57.33
2022-12-06T20:46:23.254Z,56.42
2022-12-06T20:48:50.132Z,57.10
2022-12-06T20:51:19.533Z,54.95
2022-12-06T20:53:50.268Z,55.42
2022-12-06T20:56:19.465Z,53.92
2022-12-06T20:58:48.061Z,53.30
2022-12-06T21:01:19.627Z,49.40
2022-12-06T21:03:47.892Z,49.05
2022-12-06T21:06:15.657Z,49.78
2022-12-06T21:08:42.613Z,48.28
2022-12-06T21:11:25.464Z,49.03
2022-12-06T21:13:56.975Z,49.38
2022-12-06T21:16:29.256Z,49.08
2022-12-06T21:19:07.708Z,46.75
2022-12-06T21:21:36.840Z,47.58
2022-12-06T21:24:06.144Z,45.22
2022-12-06T21:26:33.618Z,44.03
2022-12-06T21:29:00.579Z,44.97
2022-12-06T21:31:45.939Z,43.75
2022-12-06T21:34:14.642Z,44.00
2022-12-06T21:36:41.760Z,42.43
2022-12-06T21:39:09.795Z,42.63
2022-12-06T21:41:36.734Z,39.80
2022-12-06T21:44:03.584Z,40.90
2022-12-06T21:46:30.539Z,40.80
2022-12-06T21:48:59.307Z,39.60
2022-12-06T21:51:28.899Z,38.28
2022-12-06T21:56:24.964Z,38.80
2022-12-06T21:58:52.085Z,67.70
2022-12-06T22:01:22.082Z,80.72
2022-12-06T22:03:50.698Z,72.53
2022-12-06T22:06:18.321Z,72.03
2022-12-06T22:08:46.231Z,65.43
2022-12-06T22:11:15.464Z,59.75
2022-12-06T22:13:42.611Z,54.80
2022-12-06T22:16:11.511Z,52.47
2022-12-06T22:18:44.795Z,50.13
2022-12-06T22:21:20.028Z,47.05
2022-12-06T22:23:47.652Z,47.10
2022-12-06T22:26:17.161Z,44.85
2022-12-06T22:31:21.039Z,41.50
2022-12-06T22:33:48.548Z,41.10
2022-12-06T22:36:16.158Z,44.55
2022-12-06T22:38:43.652Z,57.83
2022-12-06T22:41:10.706Z,58.90
2022-12-06T22:43:38.009Z,59.55
2022-12-06T22:46:14.643Z,54.42
2022-12-06T22:48:42.253Z,51.03
2022-12-06T22:51:13.763Z,49.30
2022-12-06T22:53:42.058Z,46.20
2022-12-06T22:56:09.676Z,45.53
2022-12-06T22:58:36.614Z,44.53
2022-12-06T23:01:16.763Z,41.28
2022-12-06T23:03:45.480Z,41.13
2022-12-06T23:06:13.298Z,40.20
2022-12-06T23:08:40.466Z,39.17
2022-12-06T23:11:10.579Z,38.72
2022-12-06T23:13:37.630Z,37.03
2022-12-06T23:16:07.515Z,36.63
2022-12-06T23:18:35.095Z,36.13
2022-12-06T23:21:06.211Z,35.78
2022-12-06T23:23:33.693Z,35.70
2022-12-06T23:26:11.094Z,34.20
2022-12-06T23:31:18.387Z,32.90
2022-12-06T23:33:46.566Z,35.53
2022-12-06T23:36:19.267Z,51.47
2022-12-06T23:38:46.363Z,55.70
2022-12-06T23:41:15.625Z,59.95
2022-12-06T23:43:42.660Z,59.60
2022-12-06T23:46:20.602Z,56.40
2022-12-06T23:48:50.134Z,49.78
2022-12-06T23:51:19.419Z,47.05
2022-12-06T23:53:50.877Z,44.70
2022-12-06T23:56:18.964Z,42.70
2022-12-06T23:58:46.118Z,40.35
